Time;durP1;ratioP1;P1;durP2;ratioP2;P2;SDS_P1;SDS_P2;PMS_P1;PMS_P2;Temp;Humidity;BMP_temperature;BMP_pressure;BME280_temperature;BME280_humidity;BME280_pressure;Samples;Min_cycle;Max_cycle;Signal;HPM_P1;HPM_P2
2021/04/05 00:00:31;;;;;;;50.33;20.80;;;;;;;8.93;64.63;101300.19;5028686;28;20050;-88
2021/04/05 00:02:58;;;;;;;47.90;20.73;;;;;;;8.90;64.13;101297.59;5032071;28;20022;-88
2021/04/05 00:05:28;;;;;;;48.03;20.92;;;;;;;8.92;64.61;101298.44;5031097;28;20103;-88
2021/04/05 00:07:54;;;;;;;47.13;21.23;;;;;;;8.81;64.38;101303.81;5031698;28;20030;-88
2021/04/05 00:10:24;;;;;;;56.78;22.85;;;;;;;8.82;65.04;101291.47;5029934;28;20029;-88
2021/04/05 00:12:53;;;;;;;50.45;20.90;;;;;;;8.86;64.82;101293.19;5030880;28;20026;-88
2021/04/05 00:15:19;;;;;;;54.78;23.60;;;;;;;8.92;64.20;101277.28;5024441;28;20038;-88
2021/04/05 00:17:47;;;;;;;51.65;22.95;;;;;;;8.95;64.03;101287.88;5028806;28;20025;-88
2021/04/05 00:20:19;;;;;;;56.20;21.13;;;;;;;8.98;64.74;101282.53;5022284;28;20032;-87
2021/04/05 00:22:45;;;;;;;53.40;22.90;;;;;;;8.84;64.67;101289.69;5022239;28;20133;-88
2021/04/05 00:25:12;;;;;;;58.47;23.63;;;;;;;8.71;65.02;101284.47;5031274;28;20021;-88
2021/04/05 00:27:40;;;;;;;57.13;22.48;;;;;;;9.04;64.63;101279.88;5019328;28;20042;-88
2021/04/05 00:30:10;;;;;;;59.53;21.98;;;;;;;9.03;64.71;101279.88;5028236;28;20087;-87
2021/04/05 00:32:36;;;;;;;49.38;22.25;;;;;;;9.03;64.93;101274.59;5027906;28;20025;-87
2021/04/05 00:35:06;;;;;;;50.55;22.05;;;;;;;9.05;64.77;101263.13;5029723;28;20095;-87
2021/04/05 00:37:32;;;;;;;56.55;23.30;;;;;;;8.95;64.69;101261.44;5030461;28;20029;-88
2021/04/05 00:39:59;;;;;;;48.92;22.33;;;;;;;9.02;64.57;101262.25;5021997;28;20025;-87
2021/04/05 00:42:25;;;;;;;46.30;21.98;;;;;;;9.21;63.87;101255.09;5028682;28;20438;-87
2021/04/05 00:44:52;;;;;;;55.72;23.33;;;;;;;9.07;64.92;101248.13;5028694;28;20048;-88
2021/04/05 00:47:19;;;;;;;60.17;22.63;;;;;;;9.08;65.52;101251.66;5028473;28;20033;-88
2021/04/05 00:49:45;;;;;;;50.05;21.67;;;;;;;9.20;65.10;101246.25;5025888;28;20528;-88
2021/04/05 00:52:12;;;;;;;59.50;21.80;;;;;;;9.25;65.38;101243.59;5027428;28;20029;-88
2021/04/05 00:54:39;;;;;;;56.38;20.95;;;;;;;9.30;65.57;101238.28;5028546;28;20124;-86
2021/04/05 00:57:06;;;;;;;57.35;20.50;;;;;;;9.38;65.24;101234.69;5025089;28;20124;-86
2021/04/05 00:59:36;;;;;;;60.08;21.00;;;;;;;9.41;65.07;101232.88;5028318;28;20026;-89
2021/04/05 01:02:03;;;;;;;51.15;21.20;;;;;;;9.55;64.88;101244.22;5024952;28;20018;-87
2021/04/05 01:04:30;;;;;;;59.92;20.23;;;;;;;9.61;64.62;101228.28;5026100;28;20531;-88
2021/04/05 01:06:56;;;;;;;69.30;21.25;;;;;;;9.58;65.49;101223.00;5023888;28;20042;-87
2021/04/05 01:09:23;;;;;;;48.50;17.50;;;;;;;9.64;65.06;101230.03;5031912;28;20049;-88
2021/04/05 01:11:49;;;;;;;47.53;18.42;;;;;;;9.79;65.15;101229.00;5020918;28;20052;-88
2021/04/05 01:14:16;;;;;;;49.38;16.88;;;;;;;10.03;64.69;101222.53;5027863;28;20077;-87
2021/04/05 01:16:43;;;;;;;49.85;17.15;;;;;;;10.13;64.48;101212.72;5026498;28;20472;-88
2021/04/05 01:19:10;;;;;;;54.53;16.80;;;;;;;10.10;64.63;101218.06;5030024;28;20021;-87
2021/04/05 01:21:38;;;;;;;49.08;15.98;;;;;;;10.19;65.01;101204.69;5030828;28;20072;-87
2021/04/05 01:24:05;;;;;;;50.88;15.88;;;;;;;10.17;65.16;101203.84;5027237;28;20021;-87
2021/04/05 01:26:33;;;;;;;49.83;14.18;;;;;;;10.28;64.64;101195.75;5024385;28;20476;-87
2021/04/05 01:29:01;;;;;;;60.88;15.85;;;;;;;10.54;63.92;101174.22;5025685;28;20022;-87
2021/04/05 01:31:27;;;;;;;61.10;16.15;;;;;;;10.59;63.77;101160.94;5027509;28;20034;-87
2021/04/05 01:33:54;;;;;;;52.05;14.77;;;;;;;10.40;64.67;101152.38;5026723;28;20025;-88
2021/04/05 01:36:20;;;;;;;55.88;14.57;;;;;;;10.42;64.38;101151.47;5026857;28;20037;-88
2021/04/05 01:38:49;;;;;;;37.25;13.50;;;;;;;10.40;64.04;101158.53;5027117;28;20029;-87
2021/04/05 01:41:22;;;;;;;46.20;15.65;;;;;;;10.61;63.54;101154.69;5027231;28;20052;-88
2021/04/05 01:43:49;;;;;;;42.50;13.93;;;;;;;10.60;63.81;101154.72;5030296;28;20533;-88
2021/04/05 01:46:18;;;;;;;45.35;12.50;;;;;;;10.78;63.10;101149.16;5027334;28;20084;-88
2021/04/05 01:48:45;;;;;;;51.22;14.15;;;;;;;10.71;63.38;101149.28;5028933;28;20033;-89
2021/04/05 01:51:15;;;;;;;41.97;12.90;;;;;;;10.72;62.82;101149.25;5027593;28;20026;-87
2021/04/05 01:53:44;;;;;;;34.38;12.13;;;;;;;10.66;62.34;101144.03;5025929;28;20032;-88
2021/04/05 01:56:13;;;;;;;31.85;10.00;;;;;;;10.62;61.47;101129.09;5028891;28;20029;-88
2021/04/05 01:58:41;;;;;;;35.70;11.57;;;;;;;10.76;60.57;101121.78;5035278;28;20400;-89
2021/04/05 02:01:11;;;;;;;28.63;9.65;;;;;;;10.90;59.64;101116.25;5020909;28;20022;-89
2021/04/05 02:03:38;;;;;;;26.38;10.57;;;;;;;10.93;59.18;101115.31;5040641;28;20386;-88
2021/04/05 02:08:53;;;;;;;25.58;9.85;;;;;;;11.24;58.05;101102.41;5079998;27;20466;-89
2021/04/05 02:11:24;;;;;;;30.80;9.40;;;;;;;11.08;57.80;101103.56;5059572;28;20033;-88
2021/04/05 02:13:54;;;;;;;19.35;8.10;;;;;;;10.94;57.56;101091.47;5049595;28;20530;-90
2021/04/05 02:16:22;;;;;;;23.05;10.48;;;;;;;11.00;57.08;101083.41;5050077;28;20028;-90
2021/04/05 02:18:51;;;;;;;22.00;9.57;;;;;;;11.16;56.61;101086.66;5050003;28;20037;-88
2021/04/05 02:21:28;;;;;;;23.85;9.20;;;;;;;11.31;56.40;101072.22;5051491;28;20419;-87
2021/04/05 02:24:08;;;;;;;18.70;7.85;;;;;;;11.27;55.50;101067.84;5048544;28;20098;-88
2021/04/05 02:26:42;;;;;;;16.25;7.85;;;;;;;11.36;55.66;101055.31;5050087;28;20049;-87
2021/04/05 02:29:08;;;;;;;24.42;8.85;;;;;;;11.19;55.90;101053.00;5049861;28;20119;-90
2021/04/05 02:31:36;;;;;;;16.70;7.97;;;;;;;11.19;55.35;101047.69;5049405;28;20044;-90
2021/04/05 02:34:04;;;;;;;20.08;9.27;;;;;;;11.31;55.23;101047.44;5049840;28;20061;-90
2021/04/05 02:36:32;;;;;;;18.60;7.70;;;;;;;11.29;55.24;101047.50;5049921;28;20023;-90
2021/04/05 02:39:03;;;;;;;21.75;9.32;;;;;;;11.30;55.10;101035.97;5049287;28;20028;-91
2021/04/05 02:41:32;;;;;;;21.38;7.95;;;;;;;11.39;54.52;101039.34;5045552;28;20040;-90
2021/04/05 02:43:59;;;;;;;18.98;9.10;;;;;;;11.43;54.94;101039.25;5049503;28;20025;-90
2021/04/05 02:46:28;;;;;;;22.20;8.25;;;;;;;11.43;54.64;101027.78;5049386;28;20079;-89
2021/04/05 02:48:58;;;;;;;21.17;8.50;;;;;;;11.58;54.29;101030.09;5048738;28;20030;-89
2021/04/05 02:51:25;;;;;;;23.25;9.85;;;;;;;11.41;54.62;101032.22;5049692;28;20035;-90
2021/04/05 02:53:56;;;;;;;18.33;8.68;;;;;;;11.44;54.91;101016.22;5049158;28;20025;-89
2021/04/05 02:56:23;;;;;;;21.73;9.13;;;;;;;11.36;55.00;101021.69;5049723;28;20029;-90
2021/04/05 02:58:55;;;;;;;16.38;8.48;;;;;;;11.42;54.97;101010.09;5049046;28;20029;-89
2021/04/05 03:01:23;;;;;;;20.35;9.90;;;;;;;11.66;54.45;100990.13;5048741;28;20036;-89
2021/04/05 03:03:50;;;;;;;23.30;8.57;;;;;;;11.46;54.76;100995.84;5049267;28;20047;-90
2021/04/05 03:06:19;;;;;;;22.92;9.23;;;;;;;11.50;54.68;100984.25;5049998;28;20174;-90
2021/04/05 03:08:46;;;;;;;20.23;9.68;;;;;;;11.57;54.78;100975.25;5048728;28;20033;-89
2021/04/05 03:11:19;;;;;;;15.73;8.32;;;;;;;11.56;54.42;100984.13;5049291;28;20029;-91
2021/04/05 03:13:46;;;;;;;21.80;8.02;;;;;;;11.49;54.79;100967.47;5048993;28;20156;-90
2021/04/05 03:16:19;;;;;;;25.88;9.77;;;;;;;11.60;54.58;100963.72;5048887;28;20026;-87
2021/04/05 03:18:46;;;;;;;20.25;9.38;;;;;;;11.70;54.17;100961.72;5042260;28;20022;-88
2021/04/05 03:21:14;;;;;;;19.70;8.65;;;;;;;11.36;55.18;100970.44;5035447;28;20120;-89
2021/04/05 03:23:42;;;;;;;20.75;8.38;;;;;;;11.56;54.50;100970.00;5035138;28;20029;-88
2021/04/05 03:26:09;;;;;;;19.30;8.95;;;;;;;11.60;54.60;100961.94;5035027;28;20064;-89
2021/04/05 03:28:35;;;;;;;22.95;9.68;;;;;;;11.70;54.46;100943.16;5035711;28;20033;-90
2021/04/05 03:36:44;;;;;;;18.88;9.52;;;;;;;11.61;54.52;100933.63;5083433;27;20421;-90
2021/04/05 03:39:14;;;;;;;20.83;8.23;;;;;;;11.57;54.85;100935.47;5070240;28;20116;-90
2021/04/05 03:47:51;;;;;;;19.30;9.52;;;;;;;11.68;54.74;100931.72;5071283;28;20368;-90
2021/04/05 03:50:41;;;;;;;16.00;9.13;;;;;;;11.78;54.20;100914.66;5071341;28;20037;-91
2021/04/05 03:56:01;;;;;;;21.00;9.32;;;;;;;11.77;54.49;100912.91;5082340;27;20371;-90
2021/04/05 03:58:32;;;;;;;22.30;9.35;;;;;;;11.62;55.26;100925.59;5071403;28;20036;-89
2021/04/05 04:01:06;;;;;;;19.98;8.90;;;;;;;11.70;55.07;100903.34;5070080;28;20059;-90
2021/04/05 04:03:47;;;;;;;24.02;9.43;;;;;;;11.73;54.91;100903.28;5077254;28;20024;-90
2021/04/05 04:06:17;;;;;;;22.50;8.98;;;;;;;11.49;55.20;100916.22;5068512;28;20024;-90
2021/04/05 04:08:45;;;;;;;27.20;10.02;;;;;;;11.73;54.84;100911.25;5060077;28;20040;-90
2021/04/05 04:11:15;;;;;;;23.20;8.30;;;;;;;11.56;55.63;100908.97;5072189;28;20025;-90
2021/04/05 04:13:45;;;;;;;25.63;9.32;;;;;;;11.72;55.23;100888.25;5071421;28;20028;-89
2021/04/05 04:16:13;;;;;;;21.38;11.00;;;;;;;11.44;56.62;100888.88;5079786;28;20439;-90
2021/04/05 04:18:40;;;;;;;22.10;9.50;;;;;;;11.46;56.30;100887.06;5073114;28;20028;-90
2021/04/05 04:21:09;;;;;;;15.85;9.07;;;;;;;11.62;55.79;100877.84;5072383;28;20082;-89
2021/04/05 04:23:36;;;;;;;25.88;10.00;;;;;;;11.46;56.81;100879.13;5081014;28;20025;-89
2021/04/05 04:26:04;;;;;;;24.63;9.50;;;;;;;11.43;56.80;100873.91;5069953;28;20024;-90
2021/04/05 04:28:31;;;;;;;22.50;9.02;;;;;;;11.51;56.68;100868.41;5069730;28;20032;-88
2021/04/05 04:30:59;;;;;;;19.08;9.43;;;;;;;11.31;57.09;100867.97;5074851;28;20028;-91
2021/04/05 04:33:27;;;;;;;21.70;9.27;;;;;;;11.13;57.51;100849.81;5081018;28;20506;-90
2021/04/05 04:35:54;;;;;;;23.40;9.38;;;;;;;11.22;57.55;100846.94;5070928;28;20105;-89
2021/04/05 04:38:22;;;;;;;17.77;8.20;;;;;;;11.30;57.23;100838.81;5069140;28;20167;-90
2021/04/05 04:40:48;;;;;;;20.17;9.82;;;;;;;11.38;56.93;100849.25;5080389;28;20025;-90
2021/04/05 04:43:15;;;;;;;20.70;10.18;;;;;;;11.15;57.75;100837.38;5078656;28;20511;-90
2021/04/05 04:45:42;;;;;;;19.35;9.20;;;;;;;11.17;57.30;100833.78;5077902;28;20059;-90
2021/04/05 04:48:09;;;;;;;16.20;8.45;;;;;;;11.32;57.49;100821.94;5074962;28;20071;-88
2021/04/05 04:50:36;;;;;;;22.70;9.70;;;;;;;11.53;56.88;100814.38;5069314;28;20029;-90
2021/04/05 04:53:03;;;;;;;25.48;9.65;;;;;;;11.38;57.32;100817.44;5074487;28;20032;-90
2021/04/05 04:55:30;;;;;;;24.75;9.50;;;;;;;11.43;56.72;100818.19;5075853;28;20039;-90
2021/04/05 04:57:59;;;;;;;22.92;9.35;;;;;;;11.35;57.00;100809.53;5080999;28;20028;-89
2021/04/05 05:00:27;;;;;;;26.35;10.00;;;;;;;11.25;57.20;100809.75;5067936;28;20032;-89
2021/04/05 05:02:55;;;;;;;16.85;9.00;;;;;;;11.51;56.62;100797.63;5068793;28;20025;-88
2021/04/05 05:05:23;;;;;;;19.50;8.95;;;;;;;11.60;56.08;100802.72;5068610;28;20037;-90
2021/04/05 05:07:51;;;;;;;27.10;8.50;;;;;;;11.36;56.83;100805.97;5068528;28;20037;-91
2021/04/05 05:10:19;;;;;;;22.42;8.70;;;;;;;11.39;57.93;100848.31;5063046;28;20053;-93
2021/04/05 05:12:45;;;;;;;17.10;5.50;;;;;;;11.08;58.68;100854.31;5055256;28;20036;-93
2021/04/05 05:15:14;;;;;;;5.82;2.38;;;;;;;10.61;60.07;100854.44;5055602;28;20036;-91
2021/04/05 05:17:48;;;;;;;6.93;2.72;;;;;;;10.33;59.61;100870.81;5055352;28;20040;-88
2021/04/05 05:20:17;;;;;;;8.75;2.05;;;;;;;10.14;59.96;100896.75;5063625;28;20025;-93
2021/04/05 05:22:46;;;;;;;5.43;1.30;;;;;;;9.62;61.88;100882.59;5055706;28;20039;-93
2021/04/05 05:25:18;;;;;;;6.43;1.45;;;;;;;9.52;62.14;100873.91;5058314;28;20033;-89
2021/04/05 05:27:50;;;;;;;7.80;1.53;;;;;;;9.24;62.27;100890.19;5063409;28;20025;-91
2021/04/05 05:30:20;;;;;;;15.85;1.83;;;;;;;9.24;62.12;100898.13;5060551;28;20419;-91
2021/04/05 05:32:49;;;;;;;8.35;1.90;;;;;;;9.24;62.88;100903.41;5056574;28;20388;-92
2021/04/05 05:35:17;;;;;;;8.15;2.95;;;;;;;9.02;63.14;100905.44;5064714;28;20123;-93
2021/04/05 05:37:44;;;;;;;11.40;1.92;;;;;;;8.92;62.77;100904.69;5057726;28;20029;-94
2021/04/05 05:40:18;;;;;;;10.10;1.88;;;;;;;8.60;63.14;100916.53;5064751;28;20476;-94
2021/04/05 05:43:08;;;;;;;15.93;3.08;;;;;;;8.77;62.01;100916.31;5056027;28;20076;-93
2021/04/05 05:46:01;;;;;;;15.68;3.30;;;;;;;8.64;62.06;100931.44;5055289;28;20021;-88
2021/04/05 05:52:01;;;;;;;11.30;2.05;;;;;;;8.35;63.25;100932.56;5080595;27;20472;-93
2021/04/05 05:55:07;;;;;;;12.23;2.22;;;;;;;8.43;62.30;100936.00;5050588;28;20029;-95
2021/04/05 05:57:48;;;;;;;15.02;2.50;;;;;;;8.26;63.46;100941.44;5052114;28;20044;-94
2021/04/05 06:00:21;;;;;;;11.02;2.05;;;;;;;8.31;63.35;100935.25;5067015;28;20407;-93
2021/04/05 06:03:11;;;;;;;8.93;1.92;;;;;;;8.26;62.89;100932.63;5062979;28;20029;-95
2021/04/05 06:06:09;;;;;;;10.65;2.10;;;;;;;8.34;62.99;100920.25;5068216;28;20036;-93
2021/04/05 06:09:00;;;;;;;10.32;2.38;;;;;;;8.12;62.47;100926.63;5053664;28;20036;-94
2021/04/05 06:11:54;;;;;;;13.90;2.60;;;;;;;8.43;61.99;100912.22;5065275;28;20043;-95
2021/04/05 06:14:50;;;;;;;19.77;3.20;;;;;;;8.49;62.02;100916.63;5056637;28;20029;-95
2021/04/05 06:23:26;;;;;;;20.38;2.22;;;;;;;7.91;63.73;100942.63;5082367;28;20903;-96
2021/04/05 06:37:26;;;;;;;10.82;1.48;;;;;;;7.63;65.40;100989.41;5090675;27;20401;-95
2021/04/05 06:40:02;;;;;;;7.55;1.67;;;;;;;7.73;65.06;100988.44;5091389;28;20039;-95
2021/04/05 06:42:54;;;;;;;5.03;1.27;;;;;;;7.57;66.06;100992.94;5064469;28;20508;-95
2021/04/05 06:49:05;;;;;;;18.88;2.55;;;;;;;7.17;66.29;101026.50;5111447;27;20869;-92
2021/04/05 06:54:50;;;;;;;15.75;3.08;;;;;;;7.45;65.36;101038.69;5086063;27;20418;-92
2021/04/05 06:57:26;;;;;;;22.90;3.22;;;;;;;7.15;65.47;101049.34;5068314;28;20039;-93
2021/04/05 07:03:20;;;;;;;21.88;3.30;;;;;;;6.83;63.80;101052.91;5060341;28;20150;-93
2021/04/05 07:18:01;;;;;;;31.95;4.20;;;;;;;6.68;63.63;101080.13;5132985;27;20376;-94
2021/04/05 07:21:07;;;;;;;28.23;3.75;;;;;;;6.38;65.31;101092.38;5107568;28;20126;-94
2021/04/05 07:29:33;;;;;;;40.45;16.63;;;;;;;6.31;62.99;101110.78;5071762;27;20417;-89
2021/04/05 07:32:08;;;;;;;22.95;4.57;;;;;;;6.18;62.56;101111.66;5061363;28;20047;-92
2021/04/05 07:37:47;;;;;;;16.23;2.90;;;;;;;6.09;62.76;101117.78;5098934;27;20375;-89
2021/04/05 07:40:54;;;;;;;17.45;3.35;;;;;;;6.29;62.16;101119.56;5098300;28;20631;-91
2021/04/05 07:43:47;;;;;;;19.25;3.58;;;;;;;6.49;61.22;101111.69;5079913;28;20437;-92
2021/04/05 07:46:21;;;;;;;13.45;2.60;;;;;;;6.35;60.94;101110.81;5075624;28;20032;-87
2021/04/05 07:49:11;;;;;;;14.48;3.05;;;;;;;6.24;59.78;101110.78;5075389;28;20037;-89
2021/04/05 07:51:47;;;;;;;19.35;2.95;;;;;;;6.16;57.65;101118.66;5080000;28;20029;-90
2021/04/05 07:54:15;;;;;;;10.18;1.88;;;;;;;6.32;56.84;101115.19;5091749;28;20023;-92
2021/04/05 07:59:42;;;;;;;10.13;2.78;;;;;;;6.72;55.77;101108.22;5080077;27;20426;-86
2021/04/05 08:13:49;;;;;;;15.60;2.30;;;;;;;6.71;56.03;101169.66;5132755;27;20414;-92
2021/04/05 08:19:13;;;;;;;21.23;8.50;;;;;;;6.50;53.52;101163.47;5083998;27;20405;-94
2021/04/05 08:21:49;;;;;;;6.90;1.85;;;;;;;6.53;52.49;101159.97;5061409;28;20036;-88
2021/04/05 08:24:42;;;;;;;9.88;1.65;;;;;;;6.76;51.25;101152.97;5051141;28;20029;-87
2021/04/05 08:27:46;;;;;;;9.73;1.33;;;;;;;6.88;51.38;101169.66;5047979;28;20032;-83
2021/04/05 08:30:21;;;;;;;5.47;1.20;;;;;;;6.68;51.42;101181.06;5039782;28;20040;-88
2021/04/05 08:33:12;;;;;;;13.88;2.17;;;;;;;6.66;50.48;101176.69;5048334;28;20147;-86
2021/04/05 08:35:44;;;;;;;9.63;1.88;;;;;;;6.52;49.45;101172.25;5047103;28;20041;-88
2021/04/05 08:41:22;;;;;;;14.57;3.07;;;;;;;6.88;52.26;101193.38;5073573;28;20420;-91
2021/04/05 08:44:14;;;;;;;13.43;2.25;;;;;;;6.45;55.69;101213.47;5042369;28;20330;-84
2021/04/05 08:46:40;;;;;;;16.98;1.63;;;;;;;6.58;56.48;101232.84;5040884;28;20041;-92
2021/04/05 08:49:13;;;;;;;5.45;1.30;;;;;;;6.20;58.12;101236.19;5039746;28;20057;-91
2021/04/05 08:51:47;;;;;;;;;;;;;;;6.46;57.49;101253.84;5037595;28;20036;-89
2021/04/05 08:54:21;;;;;;;14.65;1.95;;;;;;;6.48;58.00;101225.78;5041096;28;19921;-87
2021/04/05 08:56:56;;;;;;;19.65;4.82;;;;;;;6.32;56.14;101251.16;5034171;28;20473;-87
2021/04/05 08:59:27;;;;;;;7.47;1.25;;;;;;;6.24;57.62;101268.66;5032997;28;20030;-87
2021/04/05 09:02:33;;;;;;;9.93;1.60;;;;;;;6.46;55.95;101265.25;5036472;28;20032;-90
2021/04/05 09:05:06;;;;;;;8.82;1.40;;;;;;;6.32;56.60;101273.09;5035937;28;20087;-94
2021/04/05 09:10:13;;;;;;;8.95;2.17;;;;;;;6.76;53.77;101257.44;5077568;28;20401;-89
2021/04/05 09:12:42;;;;;;;5.43;0.90;;;;;;;5.97;53.04;101265.88;5042181;28;20447;-90
2021/04/05 09:15:37;;;;;;;6.45;1.45;;;;;;;6.92;52.51;101261.88;5045853;28;20472;-89
2021/04/05 09:30:29;;;;;;;7.30;1.75;;;;;;;7.21;44.32;101271.56;5162326;27;19926;-90
2021/04/05 09:42:27;;;;;;;10.90;1.95;;;;;;;7.37;41.39;101296.19;5067104;27;20419;-93
2021/04/05 09:45:10;;;;;;;16.02;2.20;;;;;;;7.45;42.15;101296.16;5061482;28;20040;-90
2021/04/05 09:51:05;;;;;;;6.55;1.65;;;;;;;7.51;41.83;101300.59;5080264;27;20402;-85
2021/04/05 09:56:21;;;;;;;12.85;2.28;;;;;;;7.43;39.53;101304.09;5089831;27;20430;-89
2021/04/05 09:58:56;;;;;;;6.50;1.40;;;;;;;7.63;38.83;101299.69;5083849;28;20028;-91
2021/04/05 10:01:26;;;;;;;11.15;2.30;;;;;;;7.50;37.62;101310.25;5077936;28;20037;-89
2021/04/05 10:04:01;;;;;;;6.78;1.52;;;;;;;7.50;37.21;101312.00;5057066;28;20035;-88
2021/04/05 10:06:30;;;;;;;18.08;2.65;;;;;;;7.39;39.65;101318.16;5048415;28;20029;-86
2021/04/05 10:09:48;;;;;;;;;;;;;;;;;;;;;
2021/04/05 10:12:27;;;;;;;18.75;2.30;;;;;;;7.66;40.61;101341.91;5066069;28;20361;-88
2021/04/05 10:14:55;;;;;;;6.63;1.45;;;;;;;7.75;39.78;101320.78;5057835;28;20052;-91
2021/04/05 10:17:45;;;;;;;5.60;1.45;;;;;;;7.34;36.93;101358.56;5055498;28;20025;-93
2021/04/05 10:20:13;;;;;;;9.68;1.20;;;;;;;7.01;35.92;101313.69;5058766;28;20131;-90
2021/04/05 10:22:47;;;;;;;7.18;1.92;;;;;;;7.34;36.71;101327.81;5050821;28;20491;-89
2021/04/05 10:25:20;;;;;;;6.63;1.25;;;;;;;7.18;37.88;101331.28;5049963;28;20026;-90
2021/04/05 10:27:48;;;;;;;5.53;0.82;;;;;;;6.89;36.74;101353.19;5048030;28;20021;-90
2021/04/05 10:30:18;;;;;;;10.95;1.35;;;;;;;7.26;38.37;101343.63;5049958;28;20025;-89
2021/04/05 10:32:55;;;;;;;8.07;1.30;;;;;;;7.67;38.45;101344.53;5046846;28;20108;-90
2021/04/05 10:35:28;;;;;;;9.05;1.80;;;;;;;7.63;39.73;101345.41;5049650;28;20522;-88
2021/04/05 10:37:54;;;;;;;;;;;;;;;7.89;39.39;101341.91;5049793;28;20559;-90
2021/04/05 10:40:21;;;;;;;5.15;1.40;;;;;;;7.92;40.42;101357.72;5049631;28;19920;-90
2021/04/05 10:45:37;;;;;;;10.40;1.85;;;;;;;7.19;43.71;101393.66;5082380;27;20413;-92
2021/04/05 10:48:20;;;;;;;10.38;2.42;;;;;;;6.35;45.78;101398.56;5077259;28;20104;-90
2021/04/05 10:50:59;;;;;;;16.38;2.25;;;;;;;6.45;46.56;101399.50;5071212;28;20471;-88
2021/04/05 10:53:31;;;;;;;13.73;1.98;;;;;;;5.88;47.58;101412.19;5055906;28;20086;-90
2021/04/05 10:56:25;;;;;;;9.75;2.13;;;;;;;6.13;48.00;101414.22;5059660;28;20383;-89
2021/04/05 10:59:06;;;;;;;9.70;1.90;;;;;;;5.76;49.61;101434.91;5059269;28;20045;-89
2021/04/05 11:02:05;;;;;;;14.52;1.73;;;;;;;5.94;49.12;101422.78;5058272;28;20071;-88
2021/04/05 11:04:33;;;;;;;7.63;1.38;;;;;;;5.65;49.23;101424.28;5072854;28;20037;-90
2021/04/05 11:07:01;;;;;;;8.85;1.42;;;;;;;5.57;47.89;101439.09;5058244;28;20013;-91
2021/04/05 11:09:31;;;;;;;6.50;1.65;;;;;;;5.83;47.86;101420.03;5060776;28;20029;-88
2021/04/05 11:12:00;;;;;;;7.28;1.50;;;;;;;5.89;47.41;101413.97;5058269;28;20026;-88
2021/04/05 11:14:27;;;;;;;11.07;1.48;;;;;;;6.07;47.27;101411.53;5062263;28;20048;-90
2021/04/05 11:16:59;;;;;;;12.50;1.42;;;;;;;6.65;47.13;101410.13;5058875;28;20029;-89
2021/04/05 11:19:41;;;;;;;14.57;1.75;;;;;;;6.83;45.93;101390.94;5061599;28;20047;-90
2021/04/05 11:22:22;;;;;;;10.02;1.58;;;;;;;6.84;43.19;101410.22;5059119;28;20047;-92
2021/04/05 11:25:03;;;;;;;6.95;1.48;;;;;;;7.10;41.61;101432.31;5047717;28;20029;-91
2021/04/05 11:27:34;;;;;;;10.20;1.20;;;;;;;7.07;39.85;101400.66;5049428;28;20505;-90
2021/04/05 11:30:05;;;;;;;7.10;1.05;;;;;;;7.47;38.51;101412.22;5041496;28;20036;-89
2021/04/05 11:32:35;;;;;;;7.03;1.33;;;;;;;7.42;39.36;101394.59;5047378;28;20090;-89
2021/04/05 11:35:05;;;;;;;6.47;1.77;;;;;;;7.75;38.99;101419.28;5055433;28;20029;-89
2021/04/05 11:37:36;;;;;;;7.35;1.45;;;;;;;7.91;39.00;101406.97;5060951;28;20124;-87
2021/04/05 11:40:11;;;;;;;9.77;2.03;;;;;;;7.94;37.64;101400.81;5052661;28;20032;-86
2021/04/05 11:42:43;;;;;;;11.90;1.17;;;;;;;7.69;38.20;101413.09;5045733;28;20472;-88
2021/04/05 11:45:15;;;;;;;5.85;1.48;;;;;;;7.91;37.14;101412.25;5048162;28;20119;-90
2021/04/05 11:47:47;;;;;;;7.38;1.55;;;;;;;7.95;37.98;101405.22;5049412;28;20037;-86
2021/04/05 11:50:17;;;;;;;6.60;1.43;;;;;;;8.12;37.02;101415.75;5053500;28;20372;-85
2021/04/05 11:52:53;;;;;;;5.70;0.88;;;;;;;8.13;36.33;101424.56;5053869;28;20113;-91
2021/04/05 11:55:23;;;;;;;4.22;0.90;;;;;;;7.93;34.47;101417.53;5055603;28;20112;-90
2021/04/05 11:58:12;;;;;;;3.47;0.65;;;;;;;8.14;34.89;101442.13;5040354;28;20041;-86
2021/04/05 12:00:45;;;;;;;4.05;0.73;;;;;;;8.35;34.16;101430.69;5040143;28;20036;-88
2021/04/05 12:03:22;;;;;;;3.65;1.02;;;;;;;8.40;33.99;101431.59;5032381;28;20072;-91
2021/04/05 12:06:08;;;;;;;5.18;0.80;;;;;;;8.36;35.27;101441.25;5039674;28;20026;-93
2021/04/05 12:08:49;;;;;;;6.40;1.00;;;;;;;8.45;36.47;101444.75;5045975;28;20025;-90
2021/04/05 12:11:16;;;;;;;9.68;2.35;;;;;;;8.47;38.19;101437.75;5044009;28;20096;-90
2021/04/05 12:13:47;;;;;;;6.13;1.17;;;;;;;8.03;40.01;101489.66;5034942;28;20041;-91
2021/04/05 12:16:20;;;;;;;3.28;0.63;;;;;;;6.64;52.78;101505.81;5034017;28;20044;-89
2021/04/05 12:18:50;;;;;;;;;;;;;;;5.58;59.03;101535.50;5035562;28;20057;-83
2021/04/05 12:21:16;;;;;;;4.70;0.65;;;;;;;5.33;58.33;101522.06;5042486;28;19932;-85
2021/04/05 12:23:53;;;;;;;5.05;0.88;;;;;;;5.38;60.73;101501.06;5035640;28;20052;-84
2021/04/05 12:26:25;;;;;;;2.10;0.85;;;;;;;5.56;60.14;101494.25;5034155;28;20036;-86
2021/04/05 12:28:54;;;;;;;6.28;0.80;;;;;;;5.65;59.67;101495.25;5034712;28;20021;-90
2021/04/05 12:31:25;;;;;;;3.15;0.80;;;;;;;5.65;58.18;101497.00;5035009;28;20040;-95
2021/04/05 12:33:55;;;;;;;1.58;0.98;;;;;;;5.91;59.45;101491.16;5033546;28;20025;-90
2021/04/05 12:36:29;;;;;;;3.55;0.98;;;;;;;6.35;57.03;101488.03;5036249;28;20064;-89
2021/04/05 12:38:56;;;;;;;8.30;1.15;;;;;;;6.45;59.79;101479.34;5034322;28;20029;-92
2021/04/05 12:41:23;;;;;;;4.13;0.77;;;;;;;6.63;57.88;101477.72;5032950;28;20807;-89
2021/04/05 12:43:53;;;;;;;5.03;1.30;;;;;;;6.72;55.85;101472.50;5033222;28;20033;-91
2021/04/05 12:46:23;;;;;;;9.48;1.33;;;;;;;6.86;55.49;101479.63;5033553;28;20095;-89
2021/04/05 12:48:56;;;;;;;6.35;0.98;;;;;;;6.80;51.73;101477.81;5033265;28;20029;-88
2021/04/05 12:51:25;;;;;;;5.07;0.87;;;;;;;6.81;51.40;101492.75;5034765;28;20041;-86
2021/04/05 12:54:00;;;;;;;5.28;0.85;;;;;;;6.53;53.34;101483.78;5031131;28;20025;-96
2021/04/05 12:56:28;;;;;;;3.63;0.82;;;;;;;6.45;53.77;101479.34;5034117;28;20112;-88
2021/04/05 12:58:56;;;;;;;7.18;0.93;;;;;;;6.57;53.83;101477.69;5031924;28;20034;-90
2021/04/05 13:01:32;;;;;;;7.13;1.30;;;;;;;6.80;53.17;101470.81;5038991;28;20082;-87
2021/04/05 13:04:02;;;;;;;4.45;1.10;;;;;;;6.90;52.99;101476.13;5037899;28;20048;-93
2021/04/05 13:06:40;;;;;;;8.23;1.52;;;;;;;7.18;51.48;101460.44;5039856;28;20033;-89
2021/04/05 13:09:21;;;;;;;9.38;2.00;;;;;;;7.58;51.77;101476.41;5040967;28;20064;-87
2021/04/05 13:15:13;;;;;;;5.85;1.33;;;;;;;7.41;48.10;101487.78;5070608;27;20177;-86
2021/04/05 13:17:41;;;;;;;8.70;1.15;;;;;;;7.68;46.58;101462.34;5046121;28;20037;-89
2021/04/05 13:20:10;;;;;;;6.80;0.88;;;;;;;7.39;44.16;101468.44;5042724;28;20443;-88
2021/04/05 13:22:39;;;;;;;6.93;0.75;;;;;;;7.57;45.16;101464.09;5038337;28;20033;-89
2021/04/05 13:27:50;;;;;;;10.45;1.70;;;;;;;7.97;46.39;101484.38;5030761;28;20364;-87
2021/04/05 13:30:19;;;;;;;5.75;1.25;;;;;;;7.87;45.42;101483.47;4989751;28;20030;-88
2021/04/05 13:32:51;;;;;;;4.45;0.75;;;;;;;8.19;45.68;101480.88;4990614;28;20117;-89
2021/04/05 13:35:24;;;;;;;6.78;0.90;;;;;;;8.52;44.70;101487.06;4994307;28;20022;-88
2021/04/05 13:37:53;;;;;;;17.05;1.25;;;;;;;8.81;46.55;101501.97;4986071;28;20114;-88
2021/04/05 13:40:24;;;;;;;2.97;0.70;;;;;;;8.47;49.93;101487.94;4976065;28;20117;-86
2021/04/05 13:42:53;;;;;;;5.07;0.93;;;;;;;8.50;51.79;101501.13;4983823;28;20594;-88
2021/04/05 13:45:26;;;;;;;3.97;0.93;;;;;;;8.09;52.69;101495.81;4987977;28;20030;-88
2021/04/05 13:47:55;;;;;;;3.15;0.65;;;;;;;7.23;53.55;101495.63;4988470;28;20058;-88
2021/04/05 13:50:27;;;;;;;2.85;0.73;;;;;;;7.39;52.78;101492.16;4978598;28;20149;-89
2021/04/05 13:52:57;;;;;;;7.15;1.25;;;;;;;7.88;52.59;101487.88;4978434;28;20394;-90
2021/04/05 13:55:30;;;;;;;4.10;0.80;;;;;;;8.15;51.65;101488.78;4977260;28;20367;-89
2021/04/05 13:58:05;;;;;;;4.53;1.05;;;;;;;8.04;51.50;101492.28;4985994;28;20026;-88
2021/04/05 14:00:32;;;;;;;6.57;0.95;;;;;;;7.41;53.17;101506.22;4979442;28;20035;-88